Terminal Aerodrome Forecast
Issued by NWS

Home | Current Version | Previous Version | Text Only | Print | Product List | Glossary On
Versions: 1 2 3 4 5 6 7 8 9 10 11 12 13 14 15 16 17 18 19 20 21 22 23 24 25 26 27 28 29 30
000
FTUS41 KBOX 301448 AAA
TAFACK
TAF AMD
KACK 301448Z 3015/3112 11006KT 5SM -SHRA BR SCT008 OVC035
     FM301600 17007KT 2SM -RA OVC008
     FM302000 28010KT 2SM -RA OVC008
     FM302200 31012KT P6SM OVC008
     FM310100 31016G25KT P6SM OVC008
     FM310200 31018G27KT P6SM -SN OVC015
     FM310300 31020G29KT 3SM -SN OVC008=

USA.gov is the U.S. government's official web portal to all federal, state and local government web resources and services.